Terminal Aerodrome Forecast
Issued by NWS

Home | Current Version | Previous Version | Text Only | Print | Product List | Glossary On
Versions: 1 2 3 4 5 6 7 8 9 10 11 12 13 14 15 16 17 18 19 20
004
FTUS44 KOHX 221130
TAFCKV
TAF
KCKV 221130Z 2212/2312 16007KT P6SM BKN250
     FM221500 18013G22KT P6SM BKN150
     FM222200 19007KT P6SM VCSH OVC015
     FM230200 24007KT 3SM -SHRA OVC007
     FM230800 30007KT 6SM -SHRA OVC005=

USA.gov is the U.S. government's official web portal to all federal, state and local government web resources and services.